createdAt,value
2022-10-22T00:02:07.845Z,26.45
2022-10-22T00:04:35.929Z,24.20
2022-10-22T00:07:03.805Z,24.75
2022-10-22T00:09:31.625Z,27.80
2022-10-22T00:11:59.925Z,26.75
2022-10-22T00:14:27.808Z,24.08
2022-10-22T00:16:56.350Z,26.20
2022-10-22T00:19:25.624Z,26.83
2022-10-22T00:21:53.591Z,26.77
2022-10-22T00:24:21.841Z,22.63
2022-10-22T00:26:49.724Z,27.52
2022-10-22T00:29:19.925Z,24.77
2022-10-22T00:31:49.891Z,27.95
2022-10-22T00:34:18.324Z,24.83
2022-10-22T00:36:47.546Z,25.35
2022-10-22T00:39:17.055Z,26.27
2022-10-22T00:41:45.365Z,29.88
2022-10-22T00:44:46.402Z,27.33
2022-10-22T00:47:14.585Z,25.98
2022-10-22T00:49:42.902Z,28.38
2022-10-22T00:52:12.718Z,28.02
2022-10-22T00:54:41.197Z,31.02
2022-10-22T00:57:09.193Z,26.00
2022-10-22T00:59:37.866Z,24.95
2022-10-22T01:02:05.802Z,27.55
2022-10-22T01:04:33.701Z,28.25
2022-10-22T01:07:01.635Z,25.88
2022-10-22T01:09:36.113Z,27.00
2022-10-22T01:12:10.399Z,25.30
2022-10-22T01:14:47.506Z,27.42
2022-10-22T01:20:02.837Z,27.80
2022-10-22T01:22:33.428Z,26.35
2022-10-22T01:25:08.543Z,31.83
2022-10-22T01:27:45.891Z,28.02
2022-10-22T01:30:16.055Z,27.25
2022-10-22T01:32:47.675Z,35.45
2022-10-22T01:35:19.609Z,26.77
2022-10-22T01:37:49.607Z,27.10
2022-10-22T01:40:18.153Z,25.05
2022-10-22T01:42:58.711Z,25.80
2022-10-22T01:45:28.640Z,27.98
2022-10-22T01:48:02.317Z,24.98
2022-10-22T01:50:43.226Z,26.25
2022-10-22T01:53:26.246Z,26.45
2022-10-22T01:56:09.677Z,24.80
2022-10-22T01:58:43.756Z,26.38
2022-10-22T02:01:18.437Z,24.48
2022-10-22T02:03:49.168Z,26.50
2022-10-22T02:06:20.345Z,27.88
2022-10-22T02:08:48.937Z,26.52
2022-10-22T02:11:17.095Z,24.33
2022-10-22T02:13:48.359Z,25.63
2022-10-22T02:16:20.239Z,25.48
2022-10-22T02:18:48.839Z,26.75
2022-10-22T02:21:17.127Z,25.50
2022-10-22T02:23:46.587Z,26.35
2022-10-22T02:26:18.166Z,26.30
2022-10-22T02:28:53.327Z,29.45
2022-10-22T02:31:24.898Z,29.33
2022-10-22T02:33:54.667Z,29.73
2022-10-22T02:36:23.698Z,23.75
2022-10-22T02:38:52.811Z,30.73
2022-10-22T02:41:21.258Z,24.02
2022-10-22T02:43:52.332Z,27.00
2022-10-22T02:46:20.328Z,30.30
2022-10-22T02:48:49.599Z,31.80
2022-10-22T02:51:17.518Z,30.45
2022-10-22T02:53:45.360Z,34.15
2022-10-22T02:56:14.176Z,29.77
2022-10-22T02:58:42.037Z,28.02
2022-10-22T03:01:12.385Z,27.17
2022-10-22T03:03:43.275Z,26.70
2022-10-22T03:06:12.601Z,28.83
2022-10-22T03:08:41.234Z,30.95
2022-10-22T03:11:09.318Z,30.70
2022-10-22T03:13:37.357Z,32.15
2022-10-22T03:16:05.533Z,29.90
2022-10-22T03:18:33.431Z,30.52
2022-10-22T03:21:07.492Z,33.78
2022-10-22T03:23:36.955Z,33.60
2022-10-22T03:26:05.748Z,38.65
2022-10-22T03:28:33.807Z,33.45
2022-10-22T03:31:01.751Z,35.63
2022-10-22T03:33:29.610Z,37.03
2022-10-22T03:35:57.494Z,34.35
2022-10-22T03:38:25.721Z,33.08
2022-10-22T03:40:55.014Z,33.17
2022-10-22T03:43:22.860Z,32.65
2022-10-22T03:45:50.838Z,32.65
2022-10-22T03:48:18.729Z,30.98
2022-10-22T03:50:46.563Z,37.03
2022-10-22T03:53:14.404Z,38.85
2022-10-22T03:55:42.664Z,31.10
2022-10-22T03:58:11.913Z,34.10
2022-10-22T04:00:39.984Z,34.03
2022-10-22T04:03:07.799Z,34.60
2022-10-22T04:05:35.669Z,34.15
2022-10-22T04:08:03.549Z,34.20
2022-10-22T04:10:31.407Z,34.20
2022-10-22T04:12:59.290Z,31.55
2022-10-22T04:15:29.049Z,37.45
2022-10-22T04:17:57.065Z,39.33
2022-10-22T04:20:24.907Z,39.20
2022-10-22T04:22:52.850Z,36.00
2022-10-22T04:25:20.718Z,40.80
2022-10-22T04:27:48.581Z,37.90
2022-10-22T04:30:16.583Z,43.55
2022-10-22T04:32:45.802Z,39.63
2022-10-22T04:35:13.789Z,41.55
2022-10-22T04:37:42.087Z,40.95
2022-10-22T04:40:11.742Z,40.33
2022-10-22T04:42:39.585Z,42.00
2022-10-22T04:45:08.262Z,43.25
2022-10-22T04:47:36.230Z,46.05
2022-10-22T04:50:06.353Z,43.92
2022-10-22T04:52:34.199Z,41.45
2022-10-22T04:55:02.021Z,46.65
2022-10-22T04:57:30.757Z,40.22
2022-10-22T04:59:58.610Z,42.08
2022-10-22T05:02:26.540Z,37.90
2022-10-22T05:04:54.508Z,43.72
2022-10-22T05:07:24.574Z,39.17
2022-10-22T05:09:52.470Z,45.13
2022-10-22T05:12:20.297Z,40.97
2022-10-22T05:14:48.171Z,40.85
2022-10-22T05:17:15.999Z,39.58
2022-10-22T05:19:43.853Z,39.03
2022-10-22T05:22:11.715Z,42.90
2022-10-22T05:24:41.026Z,39.75
2022-10-22T05:27:08.988Z,42.92
2022-10-22T05:29:36.978Z,44.50
2022-10-22T05:32:05.403Z,38.42
2022-10-22T05:34:33.446Z,40.35
2022-10-22T05:37:01.401Z,39.78
2022-10-22T05:39:29.320Z,37.92
2022-10-22T05:41:58.646Z,39.08
2022-10-22T05:44:26.492Z,38.78
2022-10-22T05:46:54.361Z,37.55
2022-10-22T05:49:22.232Z,40.17
2022-10-22T05:51:50.106Z,38.95
2022-10-22T05:54:20.072Z,37.55
2022-10-22T05:56:47.945Z,39.08
2022-10-22T05:59:17.125Z,42.55
2022-10-22T06:01:45.057Z,42.03
2022-10-22T06:04:13.942Z,44.05
2022-10-22T06:06:44.593Z,41.78
2022-10-22T06:09:16.057Z,39.42
2022-10-22T06:11:43.926Z,43.55
2022-10-22T06:14:11.908Z,40.70
2022-10-22T06:16:41.335Z,46.92
2022-10-22T06:19:10.308Z,47.97
2022-10-22T06:21:38.178Z,53.40
2022-10-22T06:24:06.530Z,76.15
2022-10-22T06:26:34.366Z,57.70
2022-10-22T06:29:02.640Z,90.70
2022-10-22T06:31:36.538Z,67.00
2022-10-22T06:34:06.326Z,59.83
2022-10-22T06:36:34.251Z,87.07
2022-10-22T06:39:02.231Z,95.03
2022-10-22T06:41:30.095Z,65.72
2022-10-22T06:43:58.404Z,72.05
2022-10-22T06:46:27.150Z,82.20
2022-10-22T06:48:56.456Z,62.80
2022-10-22T06:51:26.376Z,57.45
2022-10-22T06:53:54.841Z,53.03
2022-10-22T06:56:24.401Z,48.10
2022-10-22T06:58:53.916Z,49.75
2022-10-22T07:01:25.400Z,47.35
2022-10-22T07:03:54.111Z,47.90
2022-10-22T07:06:24.845Z,49.90
2022-10-22T07:08:54.874Z,48.70
2022-10-22T07:11:24.973Z,50.35
2022-10-22T07:13:55.242Z,48.30
2022-10-22T07:16:28.023Z,53.28
2022-10-22T07:18:59.135Z,53.35
2022-10-22T07:21:27.007Z,48.97
2022-10-22T07:23:56.528Z,50.30
2022-10-22T07:26:27.114Z,47.28
2022-10-22T07:28:55.131Z,43.83
2022-10-22T07:31:22.991Z,45.67
2022-10-22T07:33:50.968Z,43.25
2022-10-22T07:36:19.034Z,41.78
2022-10-22T07:38:47.503Z,44.55
2022-10-22T07:41:18.111Z,45.03
2022-10-22T07:43:46.395Z,47.13
2022-10-22T07:46:14.800Z,50.25
2022-10-22T07:48:42.678Z,50.45
2022-10-22T07:51:10.760Z,46.80
2022-10-22T07:53:38.932Z,51.92
2022-10-22T07:56:07.496Z,47.50
2022-10-22T07:58:36.901Z,48.50
2022-10-22T08:01:07.207Z,42.38
2022-10-22T08:03:35.802Z,44.55
2022-10-22T08:06:03.795Z,40.92
2022-10-22T08:08:31.898Z,43.03
2022-10-22T08:11:01.399Z,45.30
2022-10-22T08:13:30.528Z,44.20
2022-10-22T08:16:00.603Z,41.65
2022-10-22T08:18:29.090Z,39.30
2022-10-22T08:20:57.149Z,39.53
2022-10-22T08:23:26.174Z,44.85
2022-10-22T08:25:56.687Z,40.17
2022-10-22T08:28:24.608Z,38.40
2022-10-22T08:30:52.569Z,36.30
2022-10-22T08:33:21.873Z,43.08
2022-10-22T08:35:50.622Z,39.22
2022-10-22T08:38:19.076Z,38.53
2022-10-22T08:40:50.768Z,38.85
2022-10-22T08:43:35.040Z,35.90
2022-10-22T08:46:22.559Z,35.10
2022-10-22T08:48:54.919Z,34.70
2022-10-22T08:51:25.714Z,38.72
2022-10-22T08:54:15.790Z,38.15
2022-10-22T08:56:45.672Z,36.88
2022-10-22T08:59:16.892Z,36.22
2022-10-22T09:01:47.485Z,35.58
2022-10-22T09:04:25.192Z,31.27
2022-10-22T09:06:54.491Z,31.85
2022-10-22T09:09:22.780Z,37.70
2022-10-22T09:11:52.798Z,33.85
2022-10-22T09:14:22.598Z,26.88
2022-10-22T09:17:06.674Z,31.20
2022-10-22T09:19:41.497Z,35.13
2022-10-22T09:22:19.767Z,33.50
2022-10-22T09:24:49.364Z,34.53
2022-10-22T09:27:18.718Z,30.08
2022-10-22T09:29:47.170Z,29.60
2022-10-22T09:32:15.509Z,30.08
2022-10-22T09:34:46.876Z,35.05
2022-10-22T09:37:18.098Z,31.17
2022-10-22T09:39:48.014Z,32.28
2022-10-22T09:42:17.902Z,32.47
2022-10-22T09:44:47.811Z,27.92
2022-10-22T09:47:42.806Z,33.63
2022-10-22T09:50:30.098Z,30.05
2022-10-22T09:53:01.271Z,28.35
2022-10-22T09:55:29.736Z,30.85
2022-10-22T09:58:00.217Z,31.45
2022-10-22T10:00:29.094Z,32.33
2022-10-22T10:02:58.216Z,26.52
2022-10-22T10:05:30.682Z,25.42
2022-10-22T10:07:59.454Z,29.05
2022-10-22T10:10:32.602Z,25.17
2022-10-22T10:13:07.426Z,24.15
2022-10-22T10:15:39.533Z,24.63
2022-10-22T10:18:23.931Z,22.10
2022-10-22T10:20:57.722Z,26.15
2022-10-22T10:23:29.249Z,26.90
2022-10-22T10:26:00.049Z,26.60
2022-10-22T10:28:42.389Z,29.55
2022-10-22T10:31:18.737Z,31.73
2022-10-22T10:33:54.568Z,31.20
2022-10-22T10:36:31.042Z,28.00
2022-10-22T10:39:04.599Z,29.42
2022-10-22T10:41:42.413Z,31.25
2022-10-22T10:44:39.300Z,28.65
2022-10-22T10:47:17.329Z,30.83
2022-10-22T10:49:45.449Z,27.75
2022-10-22T10:52:22.794Z,28.45
2022-10-22T10:54:57.374Z,26.63
2022-10-22T10:57:34.572Z,25.83
2022-10-22T11:00:07.391Z,23.65
2022-10-22T11:07:43.840Z,24.88
2022-10-22T11:10:29.094Z,25.00
2022-10-22T11:12:59.115Z,23.88
2022-10-22T11:15:29.534Z,26.75
2022-10-22T11:18:03.368Z,23.40
2022-10-22T11:20:41.994Z,27.50
2022-10-22T11:23:20.083Z,24.83
2022-10-22T11:25:50.207Z,22.27
2022-10-22T11:28:20.646Z,38.13
2022-10-22T11:30:53.266Z,22.85
2022-10-22T11:33:23.417Z,25.90
2022-10-22T11:35:51.713Z,33.92
2022-10-22T11:38:23.814Z,24.23
2022-10-22T11:40:53.817Z,29.98
2022-10-22T11:43:29.465Z,24.67
2022-10-22T11:46:10.708Z,22.63
2022-10-22T11:48:39.628Z,26.90
2022-10-22T11:51:31.021Z,26.23
2022-10-22T11:54:03.261Z,29.88
2022-10-22T11:56:38.531Z,24.55
2022-10-22T11:59:15.167Z,23.13
2022-10-22T12:01:44.203Z,24.05
2022-10-22T12:04:23.411Z,27.80
2022-10-22T12:06:58.023Z,26.17
2022-10-22T12:09:30.264Z,31.33
2022-10-22T12:12:05.332Z,21.80
2022-10-22T12:14:35.386Z,19.52
2022-10-22T12:17:08.788Z,24.17
2022-10-22T12:19:38.692Z,21.33
2022-10-22T12:22:15.214Z,19.23
2022-10-22T12:24:46.400Z,18.70
2022-10-22T12:27:22.634Z,22.33
2022-10-22T12:29:55.458Z,18.80
2022-10-22T12:32:23.567Z,20.42
2022-10-22T12:34:52.873Z,20.27
2022-10-22T12:37:21.325Z,21.30
2022-10-22T12:39:50.576Z,19.60
2022-10-22T12:42:19.286Z,18.70
2022-10-22T12:44:47.509Z,19.70
2022-10-22T12:47:17.655Z,22.23
2022-10-22T12:49:49.889Z,18.92
2022-10-22T12:52:20.962Z,20.45
2022-10-22T12:54:52.410Z,17.70
2022-10-22T12:57:21.520Z,19.08
2022-10-22T12:59:51.873Z,15.07
2022-10-22T13:02:24.474Z,21.23
2022-10-22T13:05:14.510Z,20.35
2022-10-22T13:07:43.475Z,18.05
2022-10-22T13:10:20.891Z,14.75
2022-10-22T13:12:53.328Z,15.52
2022-10-22T13:15:24.408Z,20.88
2022-10-22T13:17:52.596Z,16.88
2022-10-22T13:20:22.603Z,16.17
2022-10-22T13:23:01.108Z,13.75
2022-10-22T13:25:31.650Z,19.63
2022-10-22T13:28:01.441Z,15.70
2022-10-22T13:30:30.827Z,16.63
2022-10-22T13:33:00.053Z,17.00
2022-10-22T13:35:30.814Z,16.20
2022-10-22T13:37:58.833Z,14.80
2022-10-22T13:40:27.604Z,16.10
2022-10-22T13:42:56.883Z,14.30
2022-10-22T13:45:24.828Z,16.90
2022-10-22T13:47:54.441Z,14.82
2022-10-22T13:50:22.765Z,11.35
2022-10-22T13:52:52.445Z,11.32
2022-10-22T13:55:23.369Z,14.38
2022-10-22T13:57:51.179Z,13.00
2022-10-22T14:00:22.528Z,9.77
2022-10-22T14:02:53.023Z,13.80
2022-10-22T14:05:21.222Z,12.15
2022-10-22T14:07:49.459Z,13.82
2022-10-22T14:10:19.777Z,11.38
2022-10-22T14:12:52.354Z,12.90
2022-10-22T14:15:24.914Z,12.52
2022-10-22T14:17:55.631Z,10.95
2022-10-22T14:20:25.653Z,9.38
2022-10-22T14:22:54.163Z,9.13
2022-10-22T14:25:23.784Z,11.43
2022-10-22T14:27:51.926Z,14.85
2022-10-22T14:30:23.277Z,8.60
2022-10-22T14:32:51.890Z,13.32
2022-10-22T14:35:21.913Z,7.43
2022-10-22T14:37:49.852Z,10.43
2022-10-22T14:40:19.338Z,15.98
2022-10-22T14:42:48.484Z,13.80
2022-10-22T14:45:21.161Z,8.38
2022-10-22T14:50:18.554Z,12.55
2022-10-22T14:52:46.681Z,13.23
2022-10-22T14:55:16.115Z,13.35
2022-10-22T14:57:44.288Z,16.75
2022-10-22T15:00:14.843Z,14.27
2022-10-22T15:02:43.088Z,15.07
2022-10-22T15:05:12.627Z,10.00
2022-10-22T15:07:40.876Z,14.65
2022-10-22T15:10:09.984Z,13.70
2022-10-22T15:12:37.923Z,10.70
2022-10-22T15:15:06.868Z,14.52
2022-10-22T15:17:34.828Z,15.15
2022-10-22T15:20:04.204Z,13.07
2022-10-22T15:22:35.241Z,13.48
2022-10-22T15:25:04.719Z,16.48
2022-10-22T15:27:32.699Z,16.98
2022-10-22T15:30:00.869Z,14.70
2022-10-22T15:32:29.389Z,15.52
2022-10-22T15:34:57.464Z,18.75
2022-10-22T15:37:25.461Z,14.73
2022-10-22T15:39:54.764Z,27.45
2022-10-22T15:42:23.264Z,17.00
2022-10-22T15:44:58.563Z,14.57
2022-10-22T15:47:28.577Z,17.67
2022-10-22T15:49:56.515Z,17.73
2022-10-22T15:52:24.462Z,18.92
2022-10-22T15:54:52.334Z,18.13
2022-10-22T15:57:22.705Z,20.10
2022-10-22T15:59:51.877Z,29.60
2022-10-22T16:02:19.876Z,24.58
2022-10-22T16:04:48.747Z,24.95
2022-10-22T16:07:19.850Z,22.65
2022-10-22T16:09:50.981Z,23.55
2022-10-22T16:12:18.928Z,24.52
2022-10-22T16:14:51.036Z,18.63
2022-10-22T16:17:19.383Z,19.77
2022-10-22T16:19:48.671Z,19.42
2022-10-22T16:22:16.543Z,17.25
2022-10-22T16:24:44.416Z,18.60
2022-10-22T16:27:12.482Z,15.32
2022-10-22T16:29:40.535Z,13.90
2022-10-22T16:32:09.846Z,15.80
2022-10-22T16:34:37.912Z,16.70
2022-10-22T16:37:10.189Z,17.05
2022-10-22T16:39:38.477Z,15.70
2022-10-22T16:42:06.496Z,15.15
2022-10-22T16:44:34.397Z,18.27
2022-10-22T16:47:02.512Z,19.08
2022-10-22T16:49:32.172Z,13.75
2022-10-22T16:52:00.168Z,14.93
2022-10-22T16:54:28.155Z,13.45
2022-10-22T16:56:57.479Z,14.65
2022-10-22T16:59:25.644Z,12.05
2022-10-22T17:01:54.605Z,12.00
2022-10-22T17:04:23.563Z,16.08
2022-10-22T17:06:52.809Z,16.10
2022-10-22T17:09:20.867Z,20.98
2022-10-22T17:11:48.792Z,12.95
2022-10-22T17:14:16.679Z,10.63
2022-10-22T17:16:44.846Z,15.05
2022-10-22T17:19:14.127Z,11.40
2022-10-22T17:21:42.046Z,12.20
2022-10-22T17:24:11.862Z,9.50
2022-10-22T17:26:39.698Z,12.80
2022-10-22T17:29:07.928Z,12.40
2022-10-22T17:31:37.369Z,11.68
2022-10-22T17:34:06.895Z,14.30
2022-10-22T17:36:36.189Z,11.32
2022-10-22T17:39:07.479Z,13.00
2022-10-22T17:41:38.004Z,14.73
2022-10-22T17:44:09.023Z,15.73
2022-10-22T17:46:37.247Z,16.58
2022-10-22T17:49:07.957Z,17.95
2022-10-22T17:51:35.883Z,16.95
2022-10-22T17:54:07.339Z,13.60
2022-10-22T17:56:40.214Z,19.33
2022-10-22T17:59:08.503Z,15.38
2022-10-22T18:01:43.301Z,14.10
2022-10-22T18:04:12.808Z,16.90
2022-10-22T18:06:40.785Z,16.77
2022-10-22T18:09:11.589Z,10.23
2022-10-22T18:11:42.679Z,13.30
2022-10-22T18:14:10.531Z,15.10
2022-10-22T18:16:38.438Z,15.50
2022-10-22T18:19:06.449Z,13.23
2022-10-22T18:21:34.511Z,10.82
2022-10-22T18:24:02.407Z,11.45
2022-10-22T18:26:30.308Z,16.83
2022-10-22T18:28:59.759Z,14.07
2022-10-22T18:31:30.349Z,19.30
2022-10-22T18:33:58.616Z,14.23
2022-10-22T18:36:28.064Z,13.45
2022-10-22T18:38:57.801Z,14.48
2022-10-22T18:41:26.061Z,16.33
2022-10-22T18:43:54.607Z,17.75
2022-10-22T18:46:24.905Z,12.02
2022-10-22T18:48:54.195Z,11.05
2022-10-22T18:51:22.219Z,11.07
2022-10-22T18:54:04.607Z,14.35
2022-10-22T18:56:39.957Z,10.18
2022-10-22T18:59:07.979Z,12.82
2022-10-22T19:01:37.278Z,15.05
2022-10-22T19:04:05.346Z,11.07
2022-10-22T19:06:34.529Z,10.60
2022-10-22T19:09:05.217Z,12.07
2022-10-22T19:11:33.765Z,9.68
2022-10-22T19:14:01.614Z,19.00
2022-10-22T19:16:29.718Z,8.45
2022-10-22T19:19:02.953Z,11.70
2022-10-22T19:21:31.314Z,6.97
2022-10-22T19:24:00.182Z,9.25
2022-10-22T19:26:29.101Z,9.90
2022-10-22T19:29:00.673Z,7.28
2022-10-22T19:31:29.822Z,8.48
2022-10-22T19:33:57.998Z,19.65
2022-10-22T19:36:28.781Z,10.02
2022-10-22T19:38:57.222Z,7.75
2022-10-22T19:41:27.188Z,9.63
2022-10-22T19:43:55.840Z,12.57
2022-10-22T19:46:25.625Z,10.70
2022-10-22T19:48:54.154Z,9.68
2022-10-22T19:51:23.491Z,9.23
2022-10-22T19:53:58.479Z,13.25
2022-10-22T19:56:26.434Z,9.65
2022-10-22T19:58:54.312Z,9.88
2022-10-22T20:01:22.492Z,7.07
2022-10-22T20:03:50.593Z,9.35
2022-10-22T20:06:19.752Z,9.93
2022-10-22T20:08:49.953Z,12.07
2022-10-22T20:11:24.506Z,10.73
2022-10-22T20:13:52.824Z,10.07
2022-10-22T20:16:24.274Z,11.43
2022-10-22T20:18:52.841Z,8.60
2022-10-22T20:21:21.855Z,7.85
2022-10-22T20:23:53.574Z,9.95
2022-10-22T20:26:23.883Z,10.00
2022-10-22T20:28:52.037Z,11.38
2022-10-22T20:31:22.343Z,6.18
2022-10-22T20:33:51.442Z,7.55
2022-10-22T20:36:21.336Z,7.43
2022-10-22T20:38:49.769Z,8.43
2022-10-22T20:41:19.143Z,10.43
2022-10-22T20:43:49.639Z,8.52
2022-10-22T20:46:19.782Z,12.65
2022-10-22T20:48:47.694Z,10.68
2022-10-22T20:51:15.619Z,14.13
2022-10-22T20:53:43.653Z,9.18
2022-10-22T20:56:11.776Z,11.07
2022-10-22T20:58:39.973Z,7.72
2022-10-22T21:01:12.169Z,7.57
2022-10-22T21:03:40.274Z,10.63
2022-10-22T21:06:08.581Z,9.80
2022-10-22T21:08:36.480Z,10.80
2022-10-22T21:11:04.473Z,10.35
2022-10-22T21:13:32.915Z,8.82
2022-10-22T21:16:00.792Z,11.10
2022-10-22T21:18:30.086Z,9.25
2022-10-22T21:20:57.985Z,8.18
2022-10-22T21:23:25.780Z,8.07
2022-10-22T21:25:54.796Z,9.93
2022-10-22T21:28:22.758Z,12.55
2022-10-22T21:30:50.629Z,10.65
2022-10-22T21:33:18.670Z,8.18
2022-10-22T21:35:52.967Z,10.93
2022-10-22T21:38:21.945Z,13.00
2022-10-22T21:40:50.471Z,14.13
2022-10-22T21:43:19.128Z,14.70
2022-10-22T21:45:47.019Z,14.45
2022-10-22T21:48:15.782Z,9.25
2022-10-22T21:50:45.117Z,9.68
2022-10-22T21:53:14.472Z,11.65
2022-10-22T21:55:42.469Z,11.57
2022-10-22T21:58:10.326Z,14.18
2022-10-22T22:00:38.211Z,11.00
2022-10-22T22:03:07.909Z,14.07
2022-10-22T22:05:35.840Z,13.20
2022-10-22T22:08:03.923Z,19.50
2022-10-22T22:10:33.657Z,13.63
2022-10-22T22:13:01.576Z,16.85
2022-10-22T22:15:31.501Z,16.42
2022-10-22T22:17:59.416Z,16.60
2022-10-22T22:20:27.414Z,16.00
2022-10-22T22:22:55.292Z,14.80
2022-10-22T22:25:23.155Z,14.98
2022-10-22T22:27:52.618Z,14.40
2022-10-22T22:30:20.485Z,16.90
2022-10-22T22:32:48.476Z,19.95
2022-10-22T22:35:16.742Z,18.55
2022-10-22T22:37:44.648Z,15.00
2022-10-22T22:40:13.423Z,13.10
2022-10-22T22:42:41.445Z,19.67
2022-10-22T22:45:11.026Z,16.17
2022-10-22T22:47:38.998Z,16.17
2022-10-22T22:50:08.129Z,14.45
2022-10-22T22:52:36.158Z,19.13
2022-10-22T22:55:04.123Z,20.35
2022-10-22T22:57:32.064Z,16.77
2022-10-22T23:00:00.045Z,14.52
2022-10-22T23:02:29.435Z,15.70
2022-10-22T23:04:57.366Z,19.90
2022-10-22T23:07:25.318Z,15.95
2022-10-22T23:09:53.295Z,16.48
2022-10-22T23:12:21.116Z,14.18
2022-10-22T23:14:51.097Z,16.90
2022-10-22T23:17:19.228Z,20.15
2022-10-22T23:19:48.495Z,18.58
2022-10-22T23:22:16.370Z,15.95
2022-10-22T23:24:44.220Z,15.65
2022-10-22T23:27:12.095Z,19.25
2022-10-22T23:29:40.045Z,16.73
2022-10-22T23:32:09.141Z,17.00
2022-10-22T23:34:37.027Z,13.75
2022-10-22T23:37:06.277Z,15.63
2022-10-22T23:39:34.136Z,16.77
2022-10-22T23:42:02.056Z,13.60
2022-10-22T23:44:29.907Z,17.05
2022-10-22T23:46:57.754Z,18.00
2022-10-22T23:49:25.846Z,17.25
2022-10-22T23:51:53.717Z,16.98
2022-10-22T23:54:23.034Z,16.05
2022-10-22T23:56:50.931Z,14.93
2022-10-22T23:59:18.881Z,19.33
